Terminal Aerodrome Forecast
Issued by NWS Pendleton, OR

Home | Current Version | Previous Version | Text Only | Print | Product List | Glossary On
Versions: 1 2 3 4 5 6 7 8 9 10 11 12 13 14 15
000
FTUS46 KPDT 251736
TAFPDT
TAF
KPDT 251736Z 2518/2618 28012KT P6SM -SHRA BKN035 OVC080
     FM260200 26010KT P6SM VCSH SCT040 BKN080
     FM260900 16005KT P6SM SCT080=

USA.gov is the U.S. government's official web portal to all federal, state and local government web resources and services.